createdAt,value
2023-05-26T00:00:00.522Z,23.4100
2023-05-26T00:01:02.788Z,23.4000
2023-05-26T00:02:05.028Z,23.4100
2023-05-26T00:03:07.478Z,23.4200
2023-05-26T00:04:09.553Z,23.4200
2023-05-26T00:05:11.641Z,23.4000
2023-05-26T00:06:11.703Z,23.4200
2023-05-26T00:07:13.866Z,23.4000
2023-05-26T00:08:16.101Z,23.3900
2023-05-26T00:09:18.292Z,23.3900
2023-05-26T00:10:20.481Z,23.3700
2023-05-26T00:11:22.702Z,23.3700
2023-05-26T00:12:24.875Z,23.3700
2023-05-26T00:13:27.081Z,23.3600
2023-05-26T00:14:29.239Z,23.3700
2023-05-26T00:15:31.449Z,23.3700
2023-05-26T00:16:33.667Z,23.3900
2023-05-26T00:17:35.879Z,23.3800
2023-05-26T00:18:38.091Z,23.3700
2023-05-26T00:19:40.332Z,23.3700
2023-05-26T00:20:42.657Z,23.3600
2023-05-26T00:21:44.750Z,23.3600
2023-05-26T00:22:44.810Z,23.3600
2023-05-26T00:23:47.034Z,23.3600
2023-05-26T00:24:49.198Z,23.3600
2023-05-26T00:25:51.404Z,23.3500
2023-05-26T00:26:53.610Z,23.3600
2023-05-26T00:27:55.848Z,23.3700
2023-05-26T00:28:58.044Z,23.3600
2023-05-26T00:30:00.216Z,23.3600
2023-05-26T00:31:02.479Z,23.3500
2023-05-26T00:32:04.596Z,23.3400
2023-05-26T00:33:06.822Z,23.3200
2023-05-26T00:34:09.037Z,23.3200
2023-05-26T00:35:11.202Z,23.3300
2023-05-26T00:36:13.406Z,23.3200
2023-05-26T00:37:15.594Z,23.3200
2023-05-26T00:38:17.828Z,23.3300
2023-05-26T00:39:20.081Z,23.3300
2023-05-26T00:40:22.340Z,23.3500
2023-05-26T00:41:24.560Z,23.3500
2023-05-26T00:42:26.809Z,23.3500
2023-05-26T00:43:29.022Z,23.3300
2023-05-26T00:44:31.263Z,23.3300
2023-05-26T00:45:31.325Z,23.3300
2023-05-26T00:46:33.542Z,23.3200
2023-05-26T00:47:35.774Z,23.3200
2023-05-26T00:48:37.947Z,23.3200
2023-05-26T00:49:40.177Z,23.3000
2023-05-26T00:50:42.354Z,23.3000
2023-05-26T00:51:44.515Z,23.2800
2023-05-26T00:52:46.707Z,23.2900
2023-05-26T00:53:48.862Z,23.2900
2023-05-26T00:54:51.090Z,23.3000
2023-05-26T00:55:53.298Z,23.2800
2023-05-26T00:56:55.571Z,23.2900
2023-05-26T00:57:57.766Z,23.2800
2023-05-26T00:59:00.032Z,23.2700
2023-05-26T01:00:02.230Z,23.2600
2023-05-26T01:01:02.362Z,23.2600
2023-05-26T01:02:04.512Z,23.2500
2023-05-26T01:03:06.812Z,23.2400
2023-05-26T01:04:08.969Z,23.2600
2023-05-26T01:05:11.278Z,23.2600
2023-05-26T01:06:13.345Z,23.2700
2023-05-26T01:07:15.588Z,23.2700
2023-05-26T01:08:17.818Z,23.2700
2023-05-26T01:09:20.061Z,23.2800
2023-05-26T01:10:22.333Z,23.2800
2023-05-26T01:11:24.531Z,23.2700
2023-05-26T01:12:26.791Z,23.2600
2023-05-26T01:13:26.905Z,23.2500
2023-05-26T01:14:29.192Z,23.2400
2023-05-26T01:15:31.312Z,23.2500
2023-05-26T01:16:33.496Z,23.2400
2023-05-26T01:17:35.665Z,23.2600
2023-05-26T01:18:37.806Z,23.2400
2023-05-26T01:19:40.005Z,23.2200
2023-05-26T01:20:42.389Z,23.2100
2023-05-26T01:21:44.431Z,23.2100
2023-05-26T01:22:46.656Z,23.2300
2023-05-26T01:23:48.905Z,23.2300
2023-05-26T01:24:51.033Z,23.2300
2023-05-26T01:25:53.296Z,23.2200
2023-05-26T01:26:55.500Z,23.2300
2023-05-26T01:27:57.753Z,23.2200
2023-05-26T01:28:57.849Z,23.2200
2023-05-26T01:30:00.161Z,23.2300
2023-05-26T01:31:02.218Z,23.2200
2023-05-26T01:32:04.370Z,23.2200
2023-05-26T01:33:06.628Z,23.2200
2023-05-26T01:34:08.808Z,23.2300
2023-05-26T01:35:10.868Z,23.2100
2023-05-26T01:36:13.052Z,23.2100
2023-05-26T01:37:15.180Z,23.1900
2023-05-26T01:38:17.379Z,23.1700
2023-05-26T01:39:19.557Z,23.1400
2023-05-26T01:40:21.746Z,23.1700
2023-05-26T01:41:23.962Z,23.1900
2023-05-26T01:42:31.321Z,23.2000
2023-05-26T01:43:28.259Z,23.1900
2023-05-26T01:44:30.482Z,23.2000
2023-05-26T01:45:32.700Z,23.2100
2023-05-26T01:46:34.945Z,23.2000
2023-05-26T01:47:37.201Z,23.2000
2023-05-26T01:48:39.293Z,23.1900
2023-05-26T01:49:41.494Z,23.1800
2023-05-26T01:50:43.710Z,23.1800
2023-05-26T01:51:46.053Z,23.1900
2023-05-26T01:52:46.017Z,23.1800
2023-05-26T01:53:48.269Z,23.1800
2023-05-26T01:54:50.466Z,23.1700
2023-05-26T01:55:52.619Z,23.1600
2023-05-26T01:56:54.773Z,23.1600
2023-05-26T01:57:56.926Z,23.1600
2023-05-26T01:58:59.097Z,23.1700
2023-05-26T02:00:01.290Z,23.1700
2023-05-26T02:01:03.472Z,23.1700
2023-05-26T02:02:05.901Z,23.1600
2023-05-26T02:03:07.935Z,23.1500
2023-05-26T02:04:10.092Z,23.1400
2023-05-26T02:05:12.281Z,23.1300
2023-05-26T02:06:14.530Z,23.1200
2023-05-26T02:07:16.774Z,23.1400
2023-05-26T02:08:18.947Z,23.1300
2023-05-26T02:09:21.156Z,23.1300
2023-05-26T02:10:23.365Z,23.1200
2023-05-26T02:11:23.415Z,23.1200
2023-05-26T02:12:25.629Z,23.1200
2023-05-26T02:13:27.754Z,23.1300
2023-05-26T02:15:10.804Z,23.0900
2023-05-26T02:16:12.979Z,23.0800
2023-05-26T02:17:15.095Z,23.1000
2023-05-26T02:18:17.298Z,23.1000
2023-05-26T02:19:19.479Z,23.1100
2023-05-26T02:20:21.735Z,23.1200
2023-05-26T02:21:23.862Z,23.1100
2023-05-26T02:22:26.080Z,23.1100
2023-05-26T02:23:26.082Z,23.0900
2023-05-26T02:24:28.253Z,23.0900
2023-05-26T02:25:30.409Z,23.0800
2023-05-26T02:26:32.615Z,23.0700
2023-05-26T02:28:41.405Z,23.0400
2023-05-26T02:29:43.459Z,23.0500
2023-05-26T02:30:45.651Z,23.0500
2023-05-26T02:31:47.812Z,23.0600
2023-05-26T02:32:49.937Z,23.0700
2023-05-26T02:33:52.081Z,23.0600
2023-05-26T02:34:54.178Z,23.0600
2023-05-26T02:35:56.272Z,23.0600
2023-05-26T02:36:58.388Z,23.0600
2023-05-26T02:38:00.490Z,23.0600
2023-05-26T02:39:02.660Z,23.0600
2023-05-26T02:40:04.776Z,23.0700
2023-05-26T02:41:06.915Z,23.0700
2023-05-26T02:42:09.049Z,23.0800
2023-05-26T02:43:11.198Z,23.0800
2023-05-26T02:44:13.378Z,23.0700
2023-05-26T02:45:15.504Z,23.0700
2023-05-26T02:46:17.698Z,23.0600
2023-05-26T02:47:19.801Z,23.0600
2023-05-26T02:48:21.820Z,23.0600
2023-05-26T02:49:21.845Z,23.0700
2023-05-26T02:50:23.904Z,23.0600
2023-05-26T02:51:26.031Z,23.0600
2023-05-26T02:52:28.168Z,23.0700
2023-05-26T02:53:30.348Z,23.0700
2023-05-26T02:54:32.482Z,23.0500
2023-05-26T02:55:34.575Z,23.0400
2023-05-26T02:56:36.740Z,23.0500
2023-05-26T02:57:38.895Z,23.0400
2023-05-26T02:58:41.075Z,23.0200
2023-05-26T02:59:43.307Z,23.0200
2023-05-26T03:00:45.463Z,23.0100
2023-05-26T03:01:47.803Z,23.0200
2023-05-26T03:02:50.027Z,23.0200
2023-05-26T03:03:52.116Z,23.0200
2023-05-26T03:04:54.251Z,23.0100
2023-05-26T03:05:56.433Z,23.0200
2023-05-26T03:06:58.579Z,23.0200
2023-05-26T03:08:00.732Z,23.0200
2023-05-26T03:09:02.862Z,23.0100
2023-05-26T03:10:02.887Z,23.0000
2023-05-26T03:11:09.429Z,23.0000
2023-05-26T03:12:07.162Z,22.9700
2023-05-26T03:13:09.307Z,23.0000
2023-05-26T03:14:11.504Z,23.0200
2023-05-26T03:15:13.728Z,23.0200
2023-05-26T03:16:15.887Z,23.0100
2023-05-26T03:17:18.104Z,23.0000
2023-05-26T03:18:20.324Z,22.9800
2023-05-26T03:19:22.526Z,22.9700
2023-05-26T03:20:24.770Z,22.9800
2023-05-26T03:21:46.534Z,22.9800
2023-05-26T03:22:39.783Z,22.9500
2023-05-26T03:23:29.249Z,22.9500
2023-05-26T03:24:31.460Z,22.9600
2023-05-26T03:25:33.696Z,22.9600
2023-05-26T03:26:35.849Z,22.9600
2023-05-26T03:27:38.035Z,22.9700
2023-05-26T03:28:40.215Z,22.9800
2023-05-26T03:29:42.411Z,22.9800
2023-05-26T03:30:44.640Z,22.9800
2023-05-26T03:31:46.746Z,22.9800
2023-05-26T03:32:48.965Z,22.9900
2023-05-26T03:33:51.082Z,22.9600
2023-05-26T03:34:53.243Z,22.9300
2023-05-26T03:35:55.469Z,22.9000
2023-05-26T03:36:57.634Z,22.8600
2023-05-26T03:37:59.821Z,22.8300
2023-05-26T03:39:01.986Z,22.8300
2023-05-26T03:40:04.195Z,22.8400
2023-05-26T03:41:06.423Z,22.8300
2023-05-26T03:42:06.435Z,22.8100
2023-05-26T03:43:08.581Z,22.8000
2023-05-26T03:44:10.718Z,22.7600
2023-05-26T03:45:12.868Z,22.7900
2023-05-26T03:46:15.076Z,22.8100
2023-05-26T03:47:17.234Z,22.8100
2023-05-26T03:48:19.433Z,22.7800
2023-05-26T03:49:21.645Z,22.7700
2023-05-26T03:50:23.845Z,22.7600
2023-05-26T03:51:26.104Z,22.7600
2023-05-26T03:52:28.274Z,22.7600
2023-05-26T03:53:30.437Z,22.7300
2023-05-26T03:54:32.627Z,22.7300
2023-05-26T03:55:34.816Z,22.7200
2023-05-26T03:56:37.050Z,22.7200
2023-05-26T03:57:39.186Z,22.7100
2023-05-26T03:58:41.355Z,22.7100
2023-05-26T03:59:43.476Z,22.6900
2023-05-26T04:00:45.657Z,22.6700
2023-05-26T04:01:47.932Z,22.6500
2023-05-26T04:02:50.000Z,22.6600
2023-05-26T04:03:52.127Z,22.6700
2023-05-26T04:04:52.125Z,22.6800
2023-05-26T04:05:54.213Z,22.7100
2023-05-26T04:06:56.358Z,22.7300
2023-05-26T04:07:58.464Z,22.7500
2023-05-26T04:09:00.623Z,22.7500
2023-05-26T04:10:02.781Z,22.7500
2023-05-26T04:11:04.946Z,22.7600
2023-05-26T04:12:07.115Z,22.7800
2023-05-26T04:13:09.271Z,22.7900
2023-05-26T04:14:11.466Z,22.7800
2023-05-26T04:15:13.674Z,22.7900
2023-05-26T04:16:15.903Z,22.8000
2023-05-26T04:17:18.120Z,22.8100
2023-05-26T04:18:20.262Z,22.8000
2023-05-26T04:19:59.054Z,22.7800
2023-05-26T04:21:01.069Z,22.8000
2023-05-26T04:22:03.202Z,22.8000
2023-05-26T04:23:05.330Z,22.8200
2023-05-26T04:24:07.442Z,22.8200
2023-05-26T04:25:09.566Z,22.8200
2023-05-26T04:26:11.719Z,22.8300
2023-05-26T04:27:13.862Z,22.8100
2023-05-26T04:28:16.087Z,22.8300
2023-05-26T04:29:18.188Z,22.8300
2023-05-26T04:30:20.367Z,22.8300
2023-05-26T04:31:22.563Z,22.8600
2023-05-26T04:32:24.744Z,22.8700
2023-05-26T04:33:26.848Z,22.8600
2023-05-26T04:34:29.005Z,22.8700
2023-05-26T04:35:31.495Z,22.8800
2023-05-26T04:36:33.240Z,22.8600
2023-05-26T04:37:35.385Z,22.8600
2023-05-26T04:38:37.568Z,22.8600
2023-05-26T04:39:39.700Z,22.8600
2023-05-26T04:40:41.868Z,22.8800
2023-05-26T04:41:43.967Z,22.8800
2023-05-26T04:42:46.083Z,22.8800
2023-05-26T04:43:48.267Z,22.8900
2023-05-26T04:44:50.434Z,22.9000
2023-05-26T04:45:52.638Z,22.8900
2023-05-26T04:46:54.792Z,22.9000
2023-05-26T04:47:56.982Z,22.8900
2023-05-26T04:48:59.222Z,22.8800
2023-05-26T04:50:01.299Z,22.8800
2023-05-26T04:51:03.491Z,22.9000
2023-05-26T04:52:05.631Z,22.8900
2023-05-26T04:53:07.813Z,22.9100
2023-05-26T04:54:10.019Z,22.9100
2023-05-26T04:55:12.127Z,22.8800
2023-05-26T04:56:14.200Z,22.8700
2023-05-26T04:57:16.305Z,22.8700
2023-05-26T04:58:18.416Z,22.8800
2023-05-26T04:59:20.623Z,22.9000
2023-05-26T05:00:22.790Z,22.9000
2023-05-26T05:01:25.023Z,22.9000
2023-05-26T05:02:27.309Z,22.9100
2023-05-26T05:03:29.509Z,22.9100
2023-05-26T05:04:31.647Z,22.9100
2023-05-26T05:05:33.832Z,22.9100
2023-05-26T05:06:36.052Z,22.9100
2023-05-26T05:07:38.256Z,22.9100
2023-05-26T05:08:40.481Z,22.9100
2023-05-26T05:09:40.592Z,22.9100
2023-05-26T05:10:42.792Z,22.9200
2023-05-26T05:11:45.026Z,22.9000
2023-05-26T05:12:47.241Z,22.9000
2023-05-26T05:13:49.424Z,22.8900
2023-05-26T05:14:51.633Z,22.9100
2023-05-26T05:15:53.817Z,22.8900
2023-05-26T05:16:55.975Z,22.9000
2023-05-26T05:17:58.245Z,22.8900
2023-05-26T05:19:00.354Z,22.8900
2023-05-26T05:20:15.190Z,22.9000
2023-05-26T05:21:04.742Z,22.8900
2023-05-26T05:22:04.697Z,22.8900
2023-05-26T05:23:06.822Z,22.9000
2023-05-26T05:24:08.995Z,22.8900
2023-05-26T05:25:11.278Z,22.8900
2023-05-26T05:26:13.273Z,22.8900
2023-05-26T05:27:15.397Z,22.8900
2023-05-26T05:28:17.548Z,22.8800
2023-05-26T05:29:19.721Z,22.8800
2023-05-26T05:30:21.971Z,22.8700
2023-05-26T05:31:24.073Z,22.8800
2023-05-26T05:32:26.382Z,22.8700
2023-05-26T05:33:28.442Z,22.8600
2023-05-26T05:34:30.584Z,22.8600
2023-05-26T05:35:32.837Z,22.8700
2023-05-26T05:36:32.747Z,22.8800
2023-05-26T05:37:34.932Z,22.8900
2023-05-26T05:38:37.017Z,22.8900
2023-05-26T05:39:39.109Z,22.9000
2023-05-26T05:40:39.161Z,22.8900
2023-05-26T05:41:41.282Z,22.8900
2023-05-26T05:42:43.450Z,22.8800
2023-05-26T05:43:45.618Z,22.8500
2023-05-26T05:46:03.090Z,22.7300
2023-05-26T05:47:05.120Z,22.6700
2023-05-26T05:48:07.310Z,22.6300
2023-05-26T05:49:09.434Z,22.5800
2023-05-26T05:50:11.605Z,22.5300
2023-05-26T05:51:11.692Z,22.5100
2023-05-26T05:52:13.807Z,22.4800
2023-05-26T05:53:16.001Z,22.4400
2023-05-26T05:54:18.194Z,22.4100
2023-05-26T05:55:20.427Z,22.3900
2023-05-26T05:56:22.624Z,22.3600
2023-05-26T05:57:24.827Z,22.3400
2023-05-26T05:58:27.014Z,22.2900
2023-05-26T05:59:29.172Z,22.2700
2023-05-26T06:00:31.331Z,22.2400
2023-05-26T06:01:33.535Z,22.2300
2023-05-26T06:02:35.679Z,22.2400
2023-05-26T06:03:37.899Z,22.2500
2023-05-26T06:04:40.058Z,22.2300
2023-05-26T06:05:42.171Z,22.2200
2023-05-26T06:06:44.376Z,22.2300
2023-05-26T06:07:46.542Z,22.2400
2023-05-26T06:08:48.768Z,22.2400
2023-05-26T06:09:50.966Z,22.2400
2023-05-26T06:10:53.169Z,22.2600
2023-05-26T06:11:55.397Z,22.2600
2023-05-26T06:12:57.483Z,22.2700
2023-05-26T06:13:59.675Z,22.2600
2023-05-26T06:14:59.717Z,22.2700
2023-05-26T06:16:01.938Z,22.2600
2023-05-26T06:17:04.250Z,22.2300
2023-05-26T06:18:06.487Z,22.2200
2023-05-26T06:19:08.631Z,22.1800
2023-05-26T06:20:10.885Z,22.1700
2023-05-26T06:21:13.088Z,22.2000
2023-05-26T06:22:15.351Z,22.2500
2023-05-26T06:23:17.553Z,22.2900
2023-05-26T06:24:19.786Z,22.3200
2023-05-26T06:25:22.020Z,22.3700
2023-05-26T06:26:22.119Z,22.4000
2023-05-26T06:27:24.331Z,22.4000
2023-05-26T06:28:26.528Z,22.4000
2023-05-26T06:29:28.776Z,22.4400
2023-05-26T06:30:30.966Z,22.4800
2023-05-26T06:31:33.232Z,22.4800
2023-05-26T06:32:35.494Z,22.4900
2023-05-26T06:33:37.637Z,22.4800
2023-05-26T06:34:39.868Z,22.5100
2023-05-26T06:35:42.074Z,22.5400
2023-05-26T06:36:44.302Z,22.5400
2023-05-26T06:37:46.540Z,22.5700
2023-05-26T06:38:48.666Z,22.6000
2023-05-26T06:39:50.865Z,22.5800
2023-05-26T06:40:53.028Z,22.5800
2023-05-26T06:41:55.213Z,22.5900
2023-05-26T06:42:55.290Z,22.5800
2023-05-26T06:43:57.406Z,22.5700
2023-05-26T06:44:59.612Z,22.5800
2023-05-26T06:46:01.774Z,22.5900
2023-05-26T06:47:04.007Z,22.6000
2023-05-26T06:48:06.237Z,22.5800
2023-05-26T06:49:08.456Z,22.6000
2023-05-26T06:50:10.604Z,22.6000
2023-05-26T06:51:12.796Z,22.6100
2023-05-26T06:52:15.011Z,22.6100
2023-05-26T06:53:17.225Z,22.6200
2023-05-26T06:54:19.349Z,22.6100
2023-05-26T06:55:21.562Z,22.6200
2023-05-26T06:56:23.724Z,22.6100
2023-05-26T06:57:25.918Z,22.6200
2023-05-26T06:58:28.120Z,22.6300
2023-05-26T06:59:30.288Z,22.6300
2023-05-26T07:00:32.484Z,22.6400
2023-05-26T07:01:34.697Z,22.6500
2023-05-26T07:02:36.851Z,22.6500
2023-05-26T07:03:39.092Z,22.6400
2023-05-26T07:04:41.221Z,22.6500
2023-05-26T07:05:48.969Z,22.6400
2023-05-26T07:06:47.305Z,22.6300
2023-05-26T07:07:45.585Z,22.6400
2023-05-26T07:08:47.810Z,22.6700
2023-05-26T07:09:49.985Z,22.6700
2023-05-26T07:10:52.179Z,22.6700
2023-05-26T07:11:54.362Z,22.6700
2023-05-26T07:12:56.560Z,22.6600
2023-05-26T07:13:58.806Z,22.6800
2023-05-26T07:15:00.993Z,22.6800
2023-05-26T07:16:03.253Z,22.6800
2023-05-26T07:17:05.452Z,22.6900
2023-05-26T07:18:07.682Z,22.7000
2023-05-26T07:19:09.880Z,22.7000
2023-05-26T07:20:12.128Z,22.6700
2023-05-26T07:21:14.176Z,22.6600
2023-05-26T07:22:16.367Z,22.6600
2023-05-26T07:23:18.547Z,22.6300
2023-05-26T07:24:20.765Z,22.6100
2023-05-26T07:25:20.800Z,22.6100
2023-05-26T07:26:23.027Z,22.5800
2023-05-26T07:27:25.201Z,22.5800
2023-05-26T07:28:27.383Z,22.5700
2023-05-26T07:29:29.615Z,22.5600
2023-05-26T07:30:31.798Z,22.5500
2023-05-26T07:31:34.014Z,22.5600
2023-05-26T07:32:36.228Z,22.5600
2023-05-26T07:33:38.390Z,22.5600
2023-05-26T07:34:40.618Z,22.5400
2023-05-26T07:35:42.810Z,22.5400
2023-05-26T07:36:45.010Z,22.5200
2023-05-26T07:37:47.221Z,22.5300
2023-05-26T07:38:49.412Z,22.5200
2023-05-26T07:39:51.677Z,22.5200
2023-05-26T07:40:53.833Z,22.4800
2023-05-26T07:41:56.174Z,22.4700
2023-05-26T07:42:58.233Z,22.4800
2023-05-26T07:43:58.293Z,22.5000
2023-05-26T07:45:00.493Z,22.5100
2023-05-26T07:46:02.637Z,22.5000
2023-05-26T07:47:04.797Z,22.5100
2023-05-26T07:48:06.994Z,22.5000
2023-05-26T07:49:09.168Z,22.4800
2023-05-26T07:50:11.386Z,22.4800
2023-05-26T07:51:13.515Z,22.4900
2023-05-26T07:52:15.738Z,22.4800
2023-05-26T07:53:17.912Z,22.5000
2023-05-26T07:54:20.106Z,22.5000
2023-05-26T07:55:22.371Z,22.5000
2023-05-26T07:56:24.559Z,22.4900
2023-05-26T07:57:29.822Z,22.5000
2023-05-26T07:58:28.984Z,22.4900
2023-05-26T07:59:31.193Z,22.5000
2023-05-26T08:00:33.442Z,22.5000
2023-05-26T08:01:35.608Z,22.5100
2023-05-26T08:02:37.888Z,22.5200
2023-05-26T08:03:37.951Z,22.5400
2023-05-26T08:04:40.145Z,22.5400
2023-05-26T08:05:42.460Z,22.5600
2023-05-26T08:06:44.552Z,22.5300
2023-05-26T08:07:46.679Z,22.5400
2023-05-26T08:08:48.837Z,22.5500
2023-05-26T08:09:50.973Z,22.5400
2023-05-26T08:10:53.113Z,22.5600
2023-05-26T08:11:55.189Z,22.5700
2023-05-26T08:12:57.361Z,22.5800
2023-05-26T08:13:59.437Z,22.6100
2023-05-26T08:15:01.567Z,22.6200
2023-05-26T08:16:03.826Z,22.6200
2023-05-26T08:17:05.831Z,22.6100
2023-05-26T08:18:07.952Z,22.6200
2023-05-26T08:19:10.039Z,22.6100
2023-05-26T08:20:12.200Z,22.6200
2023-05-26T08:21:14.442Z,22.6200
2023-05-26T08:22:16.525Z,22.6100
2023-05-26T08:23:18.713Z,22.6100
2023-05-26T08:24:20.959Z,22.6300
2023-05-26T08:25:23.152Z,22.6100
2023-05-26T08:26:23.252Z,22.5900
2023-05-26T08:27:25.458Z,22.5900
2023-05-26T08:29:32.183Z,22.5900
2023-05-26T08:30:34.248Z,22.6100
2023-05-26T08:31:36.539Z,22.6200
2023-05-26T08:32:38.543Z,22.6300
2023-05-26T08:33:40.657Z,22.6300
2023-05-26T08:34:42.763Z,22.6400
2023-05-26T08:35:45.051Z,22.6600
2023-05-26T08:36:47.092Z,22.6400
2023-05-26T08:37:49.228Z,22.6600
2023-05-26T08:38:51.378Z,22.6700
2023-05-26T08:39:53.549Z,22.6800
2023-05-26T08:40:56.960Z,22.6800
2023-05-26T08:41:58.023Z,22.6800
2023-05-26T08:43:00.165Z,22.7100
2023-05-26T08:44:07.508Z,22.7300
2023-05-26T08:45:04.511Z,22.7200
2023-05-26T08:46:06.600Z,22.7400
2023-05-26T08:47:08.842Z,22.7500
2023-05-26T08:48:10.986Z,22.7500
2023-05-26T08:49:13.011Z,22.7400
2023-05-26T08:50:15.190Z,22.7400
2023-05-26T08:51:17.323Z,22.7300
2023-05-26T08:52:19.450Z,22.7300
2023-05-26T08:53:19.366Z,22.7400
2023-05-26T08:54:21.466Z,22.7400
2023-05-26T08:55:23.599Z,22.7200
2023-05-26T08:56:25.695Z,22.7100
2023-05-26T08:57:27.813Z,22.7300
2023-05-26T08:58:29.931Z,22.7400
2023-05-26T08:59:32.111Z,22.7500
2023-05-26T09:00:34.596Z,22.7400
2023-05-26T09:01:36.419Z,22.7400
2023-05-26T09:02:38.667Z,22.7700
2023-05-26T09:03:40.843Z,22.7800
2023-05-26T09:04:42.874Z,22.7800
2023-05-26T09:05:45.040Z,22.7800
2023-05-26T09:06:54.998Z,22.7800
2023-05-26T09:07:49.365Z,22.7700
2023-05-26T09:08:51.489Z,22.7600
2023-05-26T09:09:53.666Z,22.7600
2023-05-26T09:10:55.808Z,22.7600
2023-05-26T09:11:57.948Z,22.7800
2023-05-26T09:13:00.217Z,22.8100
2023-05-26T09:14:02.253Z,22.8200
2023-05-26T09:15:04.390Z,22.8300
2023-05-26T09:16:17.021Z,22.8300
2023-05-26T09:17:08.721Z,22.8000
2023-05-26T09:18:10.884Z,22.7900
2023-05-26T09:19:12.876Z,22.7900
2023-05-26T09:20:15.087Z,22.8000
2023-05-26T09:21:17.133Z,22.8100
2023-05-26T09:23:21.438Z,22.8300
2023-05-26T09:24:23.554Z,22.8500
2023-05-26T09:25:25.699Z,22.8700
2023-05-26T09:26:27.843Z,22.8800
2023-05-26T09:27:29.979Z,22.8700
2023-05-26T09:28:32.146Z,22.8800
2023-05-26T09:29:34.271Z,22.8800
2023-05-26T09:30:36.462Z,22.8900
2023-05-26T09:31:38.637Z,22.9100
2023-05-26T09:32:40.816Z,22.8900
2023-05-26T09:33:44.845Z,22.8900
2023-05-26T09:34:45.087Z,22.8900
2023-05-26T09:35:47.246Z,22.8900
2023-05-26T09:36:49.413Z,22.8900
2023-05-26T09:37:51.554Z,22.9200
2023-05-26T09:38:53.795Z,22.9200
2023-05-26T09:39:55.955Z,22.9300
2023-05-26T09:40:58.151Z,22.9500
2023-05-26T09:42:00.335Z,22.9400
2023-05-26T09:43:02.527Z,22.9400
2023-05-26T09:44:04.750Z,22.9400
2023-05-26T09:45:06.913Z,22.9500
2023-05-26T09:46:09.109Z,22.9500
2023-05-26T09:47:11.310Z,22.9400
2023-05-26T09:48:13.497Z,22.9500
2023-05-26T09:49:15.749Z,22.9500
2023-05-26T09:50:17.904Z,22.9600
2023-05-26T09:51:18.321Z,22.9500
2023-05-26T09:52:20.099Z,22.9200
2023-05-26T09:53:22.294Z,22.9300
2023-05-26T09:54:24.539Z,22.9400
2023-05-26T09:55:26.695Z,22.9500
2023-05-26T09:56:29.870Z,22.9600
2023-05-26T09:57:31.010Z,22.9500
2023-05-26T09:58:33.174Z,22.9500
2023-05-26T09:59:35.385Z,22.9700
2023-05-26T10:00:37.422Z,22.9700
2023-05-26T10:01:39.544Z,22.9800
2023-05-26T10:02:41.705Z,23.0000
2023-05-26T10:03:43.686Z,23.0000
2023-05-26T10:04:45.928Z,23.0000
2023-05-26T10:05:47.951Z,23.0100
2023-05-26T10:06:50.065Z,23.0300
2023-05-26T10:07:52.201Z,23.0400
2023-05-26T10:08:54.325Z,23.0300
2023-05-26T10:09:56.613Z,23.0300
2023-05-26T10:10:58.591Z,23.0500
2023-05-26T10:12:00.752Z,23.0500
2023-05-26T10:13:02.863Z,23.0500
2023-05-26T10:14:04.999Z,23.0600
2023-05-26T10:15:07.174Z,23.0600
2023-05-26T10:16:09.273Z,23.0400
2023-05-26T10:17:11.415Z,23.0400
2023-05-26T10:18:13.583Z,23.0500
2023-05-26T10:19:15.693Z,23.0700
2023-05-26T10:20:17.992Z,23.0600
2023-05-26T10:21:20.060Z,23.0500
2023-05-26T10:22:22.251Z,23.0500
2023-05-26T10:23:22.266Z,23.0400
2023-05-26T10:24:24.456Z,23.0300
2023-05-26T10:25:28.063Z,23.0300
2023-05-26T10:26:28.789Z,23.0300
2023-05-26T10:27:28.816Z,23.0400
2023-05-26T10:28:31.027Z,23.0700
2023-05-26T10:29:33.188Z,23.0800
2023-05-26T10:30:35.446Z,23.0800
2023-05-26T10:31:37.639Z,23.0600
2023-05-26T10:32:39.812Z,23.0500
2023-05-26T10:35:07.900Z,23.0500
2023-05-26T10:36:10.098Z,23.0600
2023-05-26T10:37:12.113Z,23.0700
2023-05-26T10:38:14.273Z,23.0800
2023-05-26T10:39:16.419Z,23.0900
2023-05-26T10:40:18.622Z,23.0800
2023-05-26T10:41:20.797Z,23.0900
2023-05-26T10:42:22.920Z,23.1000
2023-05-26T10:43:25.077Z,23.1100
2023-05-26T10:44:27.261Z,23.1200
2023-05-26T10:45:29.398Z,23.1300
2023-05-26T10:46:31.709Z,23.1300
2023-05-26T10:47:33.765Z,23.1300
2023-05-26T10:48:35.880Z,23.1500
2023-05-26T10:49:35.855Z,23.1500
2023-05-26T10:50:38.020Z,23.1400
2023-05-26T10:51:40.130Z,23.1400
2023-05-26T10:52:42.273Z,23.1400
2023-05-26T10:53:44.396Z,23.1600
2023-05-26T10:54:46.466Z,23.1600
2023-05-26T10:55:48.546Z,23.1600
2023-05-26T10:56:52.979Z,23.1600
2023-05-26T10:57:52.847Z,23.1500
2023-05-26T10:58:54.998Z,23.1800
2023-05-26T10:59:57.155Z,23.1800
2023-05-26T11:00:59.443Z,23.1900
2023-05-26T11:02:01.600Z,23.2000
2023-05-26T11:03:03.825Z,23.2100
2023-05-26T11:04:05.998Z,23.2300
2023-05-26T11:05:08.112Z,23.2400
2023-05-26T11:06:10.293Z,23.2400
2023-05-26T11:07:12.515Z,23.2500
2023-05-26T11:08:14.614Z,23.2700
2023-05-26T11:09:16.768Z,23.2800
2023-05-26T11:10:18.920Z,23.2900
2023-05-26T11:11:20.973Z,23.3000
2023-05-26T11:12:23.130Z,23.3100
2023-05-26T11:13:25.249Z,23.3000
2023-05-26T11:14:27.365Z,23.3000
2023-05-26T11:15:29.551Z,23.3000
2023-05-26T11:16:31.619Z,23.3000
2023-05-26T11:17:33.882Z,23.3100
2023-05-26T11:18:35.864Z,23.3200
2023-05-26T11:19:35.884Z,23.3300
2023-05-26T11:20:38.094Z,23.3300
2023-05-26T11:21:40.234Z,23.3300
2023-05-26T11:22:42.281Z,23.3500
2023-05-26T11:23:44.382Z,23.3600
2023-05-26T11:24:46.512Z,23.3800
2023-05-26T11:25:48.631Z,23.4000
2023-05-26T11:26:50.750Z,23.4100
2023-05-26T11:27:52.904Z,23.4200
2023-05-26T11:28:55.017Z,23.4300
2023-05-26T11:29:57.116Z,23.4400
2023-05-26T11:30:59.272Z,23.4500
2023-05-26T11:32:01.488Z,23.4500
2023-05-26T11:33:03.588Z,23.4600
2023-05-26T11:34:05.701Z,23.4600
2023-05-26T11:35:07.783Z,23.4700
2023-05-26T11:36:09.850Z,23.4900
2023-05-26T11:37:11.960Z,23.4800
2023-05-26T11:38:14.101Z,23.4900
2023-05-26T11:39:16.219Z,23.5000
2023-05-26T11:40:18.352Z,23.5000
2023-05-26T11:41:20.504Z,23.4900
2023-05-26T11:42:22.664Z,23.4900
2023-05-26T11:43:24.999Z,23.4800
2023-05-26T11:44:27.044Z,23.4800
2023-05-26T11:45:29.260Z,23.4800
2023-05-26T11:46:29.350Z,23.5000
2023-05-26T11:47:31.534Z,23.5200
2023-05-26T11:48:33.747Z,23.5200
2023-05-26T11:49:35.931Z,23.5200
2023-05-26T11:50:38.080Z,23.5400
2023-05-26T11:51:40.174Z,23.5300
2023-05-26T11:52:42.317Z,23.5400
2023-05-26T11:53:44.535Z,23.5500
2023-05-26T11:54:46.574Z,23.5600
2023-05-26T11:55:48.710Z,23.5500
2023-05-26T11:56:50.839Z,23.5400
2023-05-26T11:57:52.981Z,23.5600
2023-05-26T11:58:55.138Z,23.5800
2023-05-26T11:59:57.233Z,23.5800
2023-05-26T12:00:59.391Z,23.5900
2023-05-26T12:02:01.599Z,23.5900
2023-05-26T12:03:03.758Z,23.5800
2023-05-26T12:04:06.115Z,23.5800
2023-05-26T12:05:08.070Z,23.5900
2023-05-26T12:06:10.215Z,23.5900
2023-05-26T12:07:12.320Z,23.6000
2023-05-26T12:08:14.528Z,23.5900
2023-05-26T12:10:14.939Z,23.5800
2023-05-26T12:11:16.841Z,23.5900
2023-05-26T12:12:18.994Z,23.6000
2023-05-26T12:13:21.162Z,23.6100
2023-05-26T12:14:23.695Z,23.6100
2023-05-26T12:15:25.588Z,23.6200
2023-05-26T12:16:27.734Z,23.6200
2023-05-26T12:17:29.947Z,23.6200
2023-05-26T12:18:32.523Z,23.6400
2023-05-26T12:19:34.281Z,23.6300
2023-05-26T12:21:05.421Z,23.6500
2023-05-26T12:21:36.565Z,23.6400
2023-05-26T12:22:38.747Z,23.6500
2023-05-26T12:23:40.945Z,23.6700
2023-05-26T12:24:43.102Z,23.6800
2023-05-26T12:25:45.257Z,23.7000
2023-05-26T12:26:47.395Z,23.7000
2023-05-26T12:27:49.582Z,23.7100
2023-05-26T12:28:51.751Z,23.7200
2023-05-26T12:29:53.863Z,23.7300
2023-05-26T12:30:58.105Z,23.7300
2023-05-26T12:31:58.280Z,23.7100
2023-05-26T12:33:00.333Z,23.7300
2023-05-26T12:34:02.453Z,23.7400
2023-05-26T12:35:04.591Z,23.7500
2023-05-26T12:36:06.772Z,23.7600
2023-05-26T12:37:08.916Z,23.7600
2023-05-26T12:38:11.053Z,23.7600